Time;durP1;ratioP1;P1;durP2;ratioP2;P2;SDS_P1;SDS_P2;PMS_P1;PMS_P2;Temp;Humidity;BMP_temperature;BMP_pressure;BME280_temperature;BME280_humidity;BME280_pressure;Samples;Min_cycle;Max_cycle;Signal;HPM_P1;HPM_P2
2021/09/19 00:03:54;;;;;;;5.68;2.50;;;14.40;99.90;;;;;;20568605;28;20046;-82
2021/09/19 00:13:56;;;;;;;4.53;2.60;;;14.40;99.90;;;;;;20585986;28;20039;-82
2021/09/19 00:23:57;;;;;;;5.57;2.97;;;14.30;99.90;;;;;;20574614;28;20058;-82
2021/09/19 00:33:58;;;;;;;5.18;2.55;;;14.30;99.90;;;;;;20566158;28;20042;-83
2021/09/19 00:44:04;;;;;;;4.95;2.47;;;14.20;99.90;;;;;;20567953;28;20055;-82
2021/09/19 00:54:06;;;;;;;4.45;2.38;;;14.10;99.90;;;;;;20660952;28;20053;-80
2021/09/19 01:04:08;;;;;;;4.55;2.80;;;14.00;99.90;;;;;;20604191;28;20059;-81
2021/09/19 01:14:13;;;;;;;6.43;2.83;;;13.90;99.90;;;;;;20597212;28;20061;-82
2021/09/19 01:24:15;;;;;;;6.15;2.47;;;13.80;99.90;;;;;;20577713;28;20057;-82
2021/09/19 01:34:16;;;;;;;7.35;2.60;;;13.70;99.90;;;;;;20592467;28;20049;-81
2021/09/19 01:44:18;;;;;;;6.82;3.08;;;13.80;99.90;;;;;;20617590;28;20541;-82
2021/09/19 01:54:19;;;;;;;8.75;3.28;;;13.80;99.90;;;;;;20656004;28;20030;-82
2021/09/19 02:04:20;;;;;;;6.90;3.13;;;13.80;99.90;;;;;;20650236;28;20065;-83
2021/09/19 02:14:21;;;;;;;8.02;3.58;;;13.80;99.90;;;;;;20655248;28;20039;-82
2021/09/19 02:24:22;;;;;;;9.30;3.25;;;13.80;99.90;;;;;;20691322;28;20038;-82
2021/09/19 02:34:23;;;;;;;6.22;2.70;;;13.70;99.90;;;;;;21389960;22;20415;-81
2021/09/19 02:44:25;;;;;;;6.25;3.45;;;13.60;99.90;;;;;;20547150;28;20056;-79
2021/09/19 02:54:27;;;;;;;8.77;3.30;;;13.60;99.90;;;;;;20584589;28;20058;-81
2021/09/19 03:04:28;;;;;;;7.30;3.22;;;13.50;99.90;;;;;;20656745;28;20048;-82
2021/09/19 03:14:29;;;;;;;6.95;3.20;;;13.60;99.90;;;;;;20602206;28;20061;-81
2021/09/19 03:24:30;;;;;;;6.50;3.85;;;13.60;99.90;;;;;;20608129;28;20069;-81
2021/09/19 03:34:34;;;;;;;8.80;3.58;;;13.60;99.90;;;;;;20606954;28;21089;-81
2021/09/19 03:44:35;;;;;;;8.85;3.28;;;13.50;99.90;;;;;;20546454;28;20072;-81
2021/09/19 03:54:36;;;;;;;8.70;3.35;;;13.40;99.90;;;;;;20572039;28;20054;-82
2021/09/19 04:04:37;;;;;;;7.35;3.60;;;13.50;99.90;;;;;;20615967;28;20074;-81
2021/09/19 04:14:41;;;;;;;7.57;4.07;;;13.30;99.90;;;;;;20525629;28;20061;-81
2021/09/19 04:24:43;;;;;;;6.47;3.38;;;13.30;99.90;;;;;;20522436;28;20058;-81
2021/09/19 04:34:44;;;;;;;10.90;4.38;;;13.20;99.90;;;;;;20579287;28;20048;-82
2021/09/19 04:44:45;;;;;;;9.82;3.72;;;13.30;99.90;;;;;;20591606;28;20059;-81
2021/09/19 04:54:46;;;;;;;6.75;3.15;;;13.30;99.90;;;;;;20554409;28;20043;-81
2021/09/19 05:04:47;;;;;;;7.28;3.55;;;13.10;99.90;;;;;;20582566;28;20047;-81
2021/09/19 05:14:49;;;;;;;8.05;3.75;;;13.10;99.90;;;;;;20600782;28;20054;-82
2021/09/19 05:24:50;;;;;;;7.60;3.38;;;13.20;99.90;;;;;;20639269;28;20058;-80
2021/09/19 05:34:51;;;;;;;8.93;4.00;;;13.10;99.90;;;;;;20593118;28;20041;-81
2021/09/19 05:44:52;;;;;;;7.95;3.25;;;13.20;99.90;;;;;;20626133;28;20057;-81
2021/09/19 05:54:53;;;;;;;8.32;3.80;;;13.20;99.90;;;;;;20584992;28;20043;-82
2021/09/19 06:04:54;;;;;;;7.65;3.40;;;13.20;99.90;;;;;;20618337;28;20063;-81
2021/09/19 06:14:55;;;;;;;6.03;3.33;;;13.20;99.90;;;;;;20614875;28;20053;-82
2021/09/19 06:24:57;;;;;;;6.53;3.25;;;13.40;99.90;;;;;;20587405;28;20076;-81
2021/09/19 06:34:58;;;;;;;6.28;3.15;;;13.50;99.90;;;;;;20584918;28;20062;-82
2021/09/19 06:45:04;;;;;;;7.30;3.10;;;13.60;99.90;;;;;;20573743;28;20060;-81
2021/09/19 06:55:06;;;;;;;6.45;2.90;;;13.70;99.90;;;;;;20627365;28;20053;-81
2021/09/19 07:05:08;;;;;;;7.20;3.20;;;13.80;99.90;;;;;;20569062;28;20890;-82
2021/09/19 07:15:09;;;;;;;6.13;3.00;;;13.80;99.90;;;;;;20596583;28;20513;-82
2021/09/19 07:25:10;;;;;;;9.43;3.38;;;14.00;99.90;;;;;;20627561;28;20051;-82
2021/09/19 07:35:13;;;;;;;6.45;3.10;;;14.20;99.90;;;;;;20614919;28;20057;-82
2021/09/19 07:45:15;;;;;;;5.45;2.10;;;14.50;99.90;;;;;;20576639;28;20069;-82
2021/09/19 07:55:16;;;;;;;6.43;3.00;;;14.70;99.90;;;;;;20595218;28;20034;-82
2021/09/19 08:05:17;;;;;;;7.25;2.58;;;14.80;99.90;;;;;;20619560;28;20042;-82
2021/09/19 08:15:19;;;;;;;4.65;1.92;;;15.00;99.90;;;;;;20604300;28;20061;-82
2021/09/19 08:25:22;;;;;;;5.63;2.63;;;15.20;99.90;;;;;;20575038;28;20049;-82
2021/09/19 08:35:23;;;;;;;4.07;1.70;;;15.60;99.90;;;;;;20582290;28;20066;-82
2021/09/19 08:45:24;;;;;;;3.85;1.73;;;16.00;99.90;;;;;;20552756;28;20070;-79
2021/09/19 08:55:25;;;;;;;4.90;1.92;;;16.30;99.90;;;;;;20573396;28;20053;-79
2021/09/19 09:05:28;;;;;;;4.28;1.92;;;16.70;99.90;;;;;;20565646;28;20405;-79
2021/09/19 09:15:46;;;;;;;4.40;1.83;;;17.20;99.90;;;;;;20576315;28;20086;-78
2021/09/19 09:26:17;;;;;;;2.35;1.05;;;17.40;99.90;;;;;;20559455;28;20054;-79
2021/09/19 09:36:33;;;;;;;3.05;1.10;;;17.70;99.90;;;;;;20553567;28;20058;-79
2021/09/19 09:46:34;;;;;;;2.42;1.20;;;18.00;99.90;;;;;;20509658;28;20054;-79
2021/09/19 09:56:35;;;;;;;3.13;1.20;;;18.10;99.90;;;;;;20495082;28;20043;-79
2021/09/19 10:06:37;;;;;;;2.78;1.17;;;18.20;99.90;;;;;;20522139;28;20066;-79
2021/09/19 10:16:38;;;;;;;2.08;0.98;;;18.30;99.90;;;;;;20490637;28;20585;-78
2021/09/19 10:26:57;;;;;;;1.98;1.00;;;18.60;99.90;;;;;;20528087;28;20497;-78
2021/09/19 10:37:00;;;;;;;3.47;0.98;;;18.90;99.90;;;;;;20542599;28;20049;-78
2021/09/19 10:47:06;;;;;;;1.65;0.50;;;19.00;99.90;;;;;;20532664;28;20047;-78
2021/09/19 10:57:20;;;;;;;2.22;0.77;;;19.40;99.90;;;;;;20537588;28;20911;-78
2021/09/19 11:07:21;;;;;;;2.58;1.10;;;20.20;99.90;;;;;;20539392;28;20051;-78
2021/09/19 11:17:24;;;;;;;2.90;0.90;;;21.10;99.90;;;;;;20505223;28;20058;-78
2021/09/19 11:27:25;;;;;;;1.98;0.65;;;21.70;99.90;;;;;;20504732;28;20046;-78
2021/09/19 11:37:27;;;;;;;1.60;0.55;;;21.80;99.90;;;;;;20486111;28;20050;-77
2021/09/19 11:47:28;;;;;;;1.30;0.63;;;21.90;99.90;;;;;;20518161;28;20047;-78
2021/09/19 11:57:29;;;;;;;2.53;1.23;;;21.60;99.90;;;;;;20508009;28;20054;-78
2021/09/19 12:07:31;;;;;;;1.70;0.75;;;21.80;99.90;;;;;;20482724;28;20072;-77
2021/09/19 12:17:33;;;;;;;2.47;0.82;;;23.00;99.90;;;;;;20506566;28;20145;-77
2021/09/19 12:27:45;;;;;;;1.77;1.00;;;23.30;99.90;;;;;;20549396;28;20386;-77
2021/09/19 12:37:47;;;;;;;2.45;0.80;;;22.40;99.90;;;;;;20568343;28;20069;-77
2021/09/19 12:47:56;;;;;;;1.77;0.80;;;22.30;99.90;;;;;;20589653;28;20064;-77
2021/09/19 12:57:57;;;;;;;2.67;0.75;;;22.50;99.90;;;;;;20567881;28;20050;-77
2021/09/19 13:07:59;;;;;;;1.85;1.10;;;22.40;99.90;;;;;;20534139;28;20042;-77
2021/09/19 13:18:01;;;;;;;1.58;0.68;;;21.50;99.90;;;;;;20550823;28;20062;-78
2021/09/19 13:28:02;;;;;;;1.13;0.50;;;21.20;99.90;;;;;;20603178;28;20053;-78
2021/09/19 13:38:04;;;;;;;2.10;0.82;;;21.10;99.90;;;;;;20536422;28;20060;-78
2021/09/19 13:48:05;;;;;;;1.35;0.50;;;20.80;99.90;;;;;;20478066;28;20423;-77
2021/09/19 13:58:09;;;;;;;0.93;0.57;;;21.10;99.90;;;;;;20482518;28;20063;-78
2021/09/19 14:08:11;;;;;;;1.30;0.60;;;22.20;99.90;;;;;;20471086;28;20050;-78
2021/09/19 14:18:13;;;;;;;1.27;0.60;;;22.00;99.90;;;;;;20436996;28;20064;-79
2021/09/19 14:28:14;;;;;;;1.00;0.55;;;21.80;99.90;;;;;;20529118;28;20047;-78
2021/09/19 14:38:15;;;;;;;1.92;0.77;;;21.40;99.90;;;;;;20487150;28;20053;-78
2021/09/19 14:48:16;;;;;;;1.70;0.70;;;21.30;99.90;;;;;;20486751;28;20059;-78
2021/09/19 14:58:17;;;;;;;2.72;0.95;;;20.90;99.90;;;;;;20483005;28;20085;-78
2021/09/19 15:08:19;;;;;;;1.73;0.65;;;20.70;99.90;;;;;;20524920;28;20057;-78
2021/09/19 15:18:20;;;;;;;0.95;0.63;;;20.60;99.90;;;;;;20453121;28;20051;-78
2021/09/19 15:28:21;;;;;;;1.13;0.50;;;20.40;99.90;;;;;;20478298;28;20522;-78
2021/09/19 15:38:22;;;;;;;1.38;0.68;;;20.30;99.90;;;;;;20530404;28;20128;-78
2021/09/19 15:48:24;;;;;;;1.30;0.65;;;20.30;99.90;;;;;;20523599;28;20048;-78
2021/09/19 15:58:27;;;;;;;2.08;0.80;;;20.20;99.90;;;;;;20546842;28;20488;-78
2021/09/19 16:08:28;;;;;;;1.80;0.88;;;20.20;99.90;;;;;;20532407;28;20039;-78
2021/09/19 16:18:29;;;;;;;1.63;0.90;;;20.20;99.90;;;;;;20525116;28;20061;-78
2021/09/19 16:28:30;;;;;;;2.22;0.80;;;20.20;99.90;;;;;;20565464;28;20050;-78
2021/09/19 16:38:32;;;;;;;1.65;0.77;;;19.90;99.90;;;;;;20563311;28;20384;-78
2021/09/19 16:48:33;;;;;;;1.48;0.80;;;19.80;99.90;;;;;;20544567;28;20047;-78
2021/09/19 16:58:34;;;;;;;1.65;0.73;;;19.80;99.90;;;;;;20550290;28;20414;-78
2021/09/19 17:08:35;;;;;;;2.80;1.40;;;19.50;99.90;;;;;;20538865;28;20036;-78
2021/09/19 17:18:36;;;;;;;3.03;1.20;;;19.30;99.90;;;;;;20561873;28;20051;-78
2021/09/19 17:28:38;;;;;;;2.08;1.10;;;19.10;99.90;;;;;;20552144;28;20089;-78
2021/09/19 17:38:39;;;;;;;2.55;1.15;;;18.80;99.90;;;;;;20550461;28;20059;-78
2021/09/19 17:48:41;;;;;;;3.05;1.55;;;18.60;99.90;;;;;;20530853;28;20050;-78
2021/09/19 17:58:42;;;;;;;3.60;1.65;;;18.50;99.90;;;;;;20550737;28;20072;-78
2021/09/19 18:08:43;;;;;;;2.47;0.85;;;18.30;99.90;;;;;;20533606;28;20093;-78
2021/09/19 18:18:44;;;;;;;3.78;1.40;;;18.00;99.90;;;;;;20550662;28;20055;-78
2021/09/19 18:28:45;;;;;;;3.58;1.50;;;17.80;99.90;;;;;;20537123;28;20036;-78
2021/09/19 18:38:47;;;;;;;2.13;1.20;;;17.80;99.90;;;;;;20531746;28;20050;-79
2021/09/19 18:48:48;;;;;;;2.67;1.20;;;17.70;99.90;;;;;;20505698;28;20149;-78
2021/09/19 18:58:49;;;;;;;3.10;1.13;;;17.40;99.90;;;;;;20495515;28;20059;-78
2021/09/19 19:08:50;;;;;;;2.05;0.98;;;17.30;99.90;;;;;;20539724;28;20055;-80
2021/09/19 19:18:52;;;;;;;2.42;1.05;;;17.20;99.90;;;;;;20482791;28;20055;-80
2021/09/19 19:28:53;;;;;;;3.05;1.33;;;17.00;99.90;;;;;;20478091;28;20043;-78
2021/09/19 19:38:54;;;;;;;2.72;1.50;;;16.80;99.90;;;;;;20501094;28;20640;-78
2021/09/19 19:48:55;;;;;;;3.97;1.05;;;16.70;99.90;;;;;;20542500;28;20072;-78
2021/09/19 19:58:56;;;;;;;2.45;1.00;;;16.60;99.90;;;;;;20549730;28;20069;-79
2021/09/19 20:08:57;;;;;;;2.33;0.90;;;16.50;99.90;;;;;;20539888;28;20412;-78
2021/09/19 20:18:59;;;;;;;2.80;1.38;;;16.40;99.90;;;;;;20535954;28;20042;-78
2021/09/19 20:29:00;;;;;;;2.67;1.10;;;16.30;99.90;;;;;;20563314;28;20073;-77
2021/09/19 20:39:01;;;;;;;3.17;1.10;;;16.30;99.90;;;;;;20502733;28;20047;-78
2021/09/19 20:49:03;;;;;;;4.25;1.58;;;16.10;99.90;;;;;;20520870;28;20045;-79
2021/09/19 20:59:04;;;;;;;2.55;1.40;;;16.10;99.90;;;;;;20538319;28;20062;-79
2021/09/19 21:09:05;;;;;;;3.15;1.45;;;16.00;99.90;;;;;;20465543;28;20099;-79
2021/09/19 21:19:06;;;;;;;2.72;1.02;;;15.80;99.90;;;;;;20543434;28;20046;-79
2021/09/19 21:29:08;;;;;;;2.03;1.17;;;15.90;99.90;;;;;;20525363;28;20343;-79
2021/09/19 21:39:09;;;;;;;3.28;1.15;;;15.70;99.90;;;;;;20534177;28;20061;-79
2021/09/19 21:49:10;;;;;;;2.13;0.93;;;15.60;99.90;;;;;;20559465;28;20046;-79
2021/09/19 21:59:12;;;;;;;2.75;1.02;;;15.50;99.90;;;;;;20529997;28;20418;-79
2021/09/19 22:09:13;;;;;;;3.22;1.30;;;15.50;99.90;;;;;;20595994;28;20064;-79
2021/09/19 22:19:15;;;;;;;2.90;1.40;;;15.40;99.90;;;;;;20604521;28;20061;-79
2021/09/19 22:29:16;;;;;;;2.38;0.98;;;15.30;99.90;;;;;;20571033;28;20558;-79
2021/09/19 22:39:17;;;;;;;2.50;1.08;;;15.30;99.90;;;;;;20516779;28;20051;-79
2021/09/19 22:49:18;;;;;;;5.90;1.33;;;15.30;99.90;;;;;;20564354;28;20040;-78
2021/09/19 22:59:21;;;;;;;6.50;1.70;;;15.30;99.90;;;;;;20517655;28;20043;-78
2021/09/19 23:09:22;;;;;;;2.33;0.88;;;15.10;99.90;;;;;;20604313;28;20041;-79
2021/09/19 23:19:24;;;;;;;3.55;1.17;;;15.10;99.90;;;;;;20545047;28;20055;-79
2021/09/19 23:29:25;;;;;;;4.07;1.05;;;15.10;99.90;;;;;;20459864;28;20034;-79
2021/09/19 23:39:27;;;;;;;2.00;1.00;;;15.00;99.90;;;;;;20515549;28;20047;-80
2021/09/19 23:49:28;;;;;;;4.15;1.33;;;14.80;99.90;;;;;;20489270;28;21065;-80
2021/09/19 23:59:29;;;;;;;2.88;1.40;;;14.70;99.90;;;;;;20502406;28;20073;-80
